sensor_id;sensor_type;location;lat;lon;timestamp;P1;durP1;ratioP1;P2;durP2;ratioP2
9080;SDS011;13509;50.760;6.080;2024-02-26T00:01:12;2.00;;;1.37;;
9080;SDS011;13509;50.760;6.080;2024-02-26T00:03:41;3.13;;;1.50;;
9080;SDS011;13509;50.760;6.080;2024-02-26T00:06:11;2.80;;;1.67;;
9080;SDS011;13509;50.760;6.080;2024-02-26T00:08:39;2.27;;;1.60;;
9080;SDS011;13509;50.760;6.080;2024-02-26T00:11:08;2.57;;;1.77;;
9080;SDS011;13509;50.760;6.080;2024-02-26T00:13:37;3.10;;;1.60;;
9080;SDS011;13509;50.760;6.080;2024-02-26T00:16:06;2.00;;;1.50;;
9080;SDS011;13509;50.760;6.080;2024-02-26T00:18:34;2.00;;;1.60;;
9080;SDS011;13509;50.760;6.080;2024-02-26T00:21:03;1.37;;;1.27;;
9080;SDS011;13509;50.760;6.080;2024-02-26T00:23:31;3.87;;;1.53;;
9080;SDS011;13509;50.760;6.080;2024-02-26T00:25:59;1.77;;;1.20;;
9080;SDS011;13509;50.760;6.080;2024-02-26T00:28:28;1.87;;;1.47;;
9080;SDS011;13509;50.760;6.080;2024-02-26T00:30:57;3.13;;;1.60;;
9080;SDS011;13509;50.760;6.080;2024-02-26T00:33:26;3.33;;;1.60;;
9080;SDS011;13509;50.760;6.080;2024-02-26T00:35:53;1.73;;;1.37;;
9080;SDS011;13509;50.760;6.080;2024-02-26T00:38:22;2.20;;;1.50;;
9080;SDS011;13509;50.760;6.080;2024-02-26T00:40:50;3.60;;;1.50;;
9080;SDS011;13509;50.760;6.080;2024-02-26T00:43:18;1.90;;;1.50;;
9080;SDS011;13509;50.760;6.080;2024-02-26T00:45:47;2.93;;;1.50;;
9080;SDS011;13509;50.760;6.080;2024-02-26T00:48:16;1.73;;;1.43;;
9080;SDS011;13509;50.760;6.080;2024-02-26T00:50:45;3.53;;;1.60;;
9080;SDS011;13509;50.760;6.080;2024-02-26T00:53:13;2.67;;;1.90;;
9080;SDS011;13509;50.760;6.080;2024-02-26T00:55:42;1.90;;;1.47;;
9080;SDS011;13509;50.760;6.080;2024-02-26T00:58:10;2.20;;;1.70;;
9080;SDS011;13509;50.760;6.080;2024-02-26T01:00:38;3.43;;;1.73;;
9080;SDS011;13509;50.760;6.080;2024-02-26T01:03:06;2.80;;;1.90;;
9080;SDS011;13509;50.760;6.080;2024-02-26T01:05:38;3.60;;;1.67;;
9080;SDS011;13509;50.760;6.080;2024-02-26T01:08:07;2.37;;;1.73;;
9080;SDS011;13509;50.760;6.080;2024-02-26T01:10:35;2.97;;;1.90;;
9080;SDS011;13509;50.760;6.080;2024-02-26T01:13:03;1.97;;;1.77;;
9080;SDS011;13509;50.760;6.080;2024-02-26T01:15:33;1.90;;;1.70;;
9080;SDS011;13509;50.760;6.080;2024-02-26T01:18:02;3.40;;;1.70;;
9080;SDS011;13509;50.760;6.080;2024-02-26T01:20:30;1.73;;;1.60;;
9080;SDS011;13509;50.760;6.080;2024-02-26T01:23:00;2.23;;;1.60;;
9080;SDS011;13509;50.760;6.080;2024-02-26T01:25:28;2.07;;;1.60;;
9080;SDS011;13509;50.760;6.080;2024-02-26T01:27:57;2.87;;;1.43;;
9080;SDS011;13509;50.760;6.080;2024-02-26T01:30:25;3.40;;;1.40;;
9080;SDS011;13509;50.760;6.080;2024-02-26T01:32:53;3.10;;;1.70;;
9080;SDS011;13509;50.760;6.080;2024-02-26T01:35:22;2.17;;;1.30;;
9080;SDS011;13509;50.760;6.080;2024-02-26T01:37:50;3.43;;;1.60;;
9080;SDS011;13509;50.760;6.080;2024-02-26T01:40:20;2.73;;;1.70;;
9080;SDS011;13509;50.760;6.080;2024-02-26T01:42:48;3.20;;;1.40;;
9080;SDS011;13509;50.760;6.080;2024-02-26T01:45:17;2.03;;;1.50;;
9080;SDS011;13509;50.760;6.080;2024-02-26T01:47:51;2.73;;;1.50;;
9080;SDS011;13509;50.760;6.080;2024-02-26T01:50:20;2.57;;;1.43;;
9080;SDS011;13509;50.760;6.080;2024-02-26T01:52:50;2.43;;;1.30;;
9080;SDS011;13509;50.760;6.080;2024-02-26T01:55:20;3.33;;;1.47;;
9080;SDS011;13509;50.760;6.080;2024-02-26T01:57:49;3.03;;;1.50;;
9080;SDS011;13509;50.760;6.080;2024-02-26T02:00:19;2.33;;;1.30;;
9080;SDS011;13509;50.760;6.080;2024-02-26T02:02:48;1.60;;;1.50;;
9080;SDS011;13509;50.760;6.080;2024-02-26T02:05:17;2.30;;;1.60;;
9080;SDS011;13509;50.760;6.080;2024-02-26T02:07:47;2.53;;;1.53;;
9080;SDS011;13509;50.760;6.080;2024-02-26T02:10:16;2.47;;;1.40;;
9080;SDS011;13509;50.760;6.080;2024-02-26T02:12:50;1.80;;;1.33;;
9080;SDS011;13509;50.760;6.080;2024-02-26T02:15:19;2.13;;;1.40;;
9080;SDS011;13509;50.760;6.080;2024-02-26T02:17:48;2.53;;;1.20;;
9080;SDS011;13509;50.760;6.080;2024-02-26T02:20:16;2.00;;;1.53;;
9080;SDS011;13509;50.760;6.080;2024-02-26T02:22:47;1.40;;;1.20;;
9080;SDS011;13509;50.760;6.080;2024-02-26T02:25:15;2.20;;;1.47;;
9080;SDS011;13509;50.760;6.080;2024-02-26T02:27:43;2.60;;;1.60;;
9080;SDS011;13509;50.760;6.080;2024-02-26T02:30:12;1.63;;;1.40;;
9080;SDS011;13509;50.760;6.080;2024-02-26T02:32:41;2.30;;;1.67;;
9080;SDS011;13509;50.760;6.080;2024-02-26T02:35:10;1.63;;;1.53;;
9080;SDS011;13509;50.760;6.080;2024-02-26T02:37:39;1.53;;;1.43;;
9080;SDS011;13509;50.760;6.080;2024-02-26T02:40:08;1.70;;;1.40;;
9080;SDS011;13509;50.760;6.080;2024-02-26T02:42:37;4.30;;;1.60;;
9080;SDS011;13509;50.760;6.080;2024-02-26T02:45:05;1.50;;;1.40;;
9080;SDS011;13509;50.760;6.080;2024-02-26T02:47:35;1.87;;;1.40;;
9080;SDS011;13509;50.760;6.080;2024-02-26T02:50:04;2.37;;;1.47;;
9080;SDS011;13509;50.760;6.080;2024-02-26T02:52:33;2.37;;;1.40;;
9080;SDS011;13509;50.760;6.080;2024-02-26T02:55:01;1.73;;;1.63;;
9080;SDS011;13509;50.760;6.080;2024-02-26T02:57:31;2.23;;;1.50;;
9080;SDS011;13509;50.760;6.080;2024-02-26T03:00:00;2.40;;;1.43;;
9080;SDS011;13509;50.760;6.080;2024-02-26T03:02:30;2.53;;;1.53;;
9080;SDS011;13509;50.760;6.080;2024-02-26T03:04:58;1.60;;;1.50;;
9080;SDS011;13509;50.760;6.080;2024-02-26T03:07:27;1.90;;;1.50;;
9080;SDS011;13509;50.760;6.080;2024-02-26T03:09:55;2.00;;;1.37;;
9080;SDS011;13509;50.760;6.080;2024-02-26T03:12:23;1.50;;;1.37;;
9080;SDS011;13509;50.760;6.080;2024-02-26T03:14:53;3.47;;;1.43;;
9080;SDS011;13509;50.760;6.080;2024-02-26T03:17:22;1.70;;;1.50;;
9080;SDS011;13509;50.760;6.080;2024-02-26T03:19:51;4.90;;;1.70;;
9080;SDS011;13509;50.760;6.080;2024-02-26T03:22:20;2.90;;;1.60;;
9080;SDS011;13509;50.760;6.080;2024-02-26T03:24:49;1.87;;;1.20;;
9080;SDS011;13509;50.760;6.080;2024-02-26T03:27:17;1.63;;;1.53;;
9080;SDS011;13509;50.760;6.080;2024-02-26T03:29:45;2.67;;;1.80;;
9080;SDS011;13509;50.760;6.080;2024-02-26T03:32:16;1.83;;;1.67;;
9080;SDS011;13509;50.760;6.080;2024-02-26T03:34:44;2.03;;;1.60;;
9080;SDS011;13509;50.760;6.080;2024-02-26T03:37:13;2.80;;;1.70;;
9080;SDS011;13509;50.760;6.080;2024-02-26T03:39:41;2.83;;;1.60;;
9080;SDS011;13509;50.760;6.080;2024-02-26T03:42:09;2.80;;;1.50;;
9080;SDS011;13509;50.760;6.080;2024-02-26T03:44:38;3.30;;;2.10;;
9080;SDS011;13509;50.760;6.080;2024-02-26T03:47:06;2.73;;;1.90;;
9080;SDS011;13509;50.760;6.080;2024-02-26T03:49:36;1.83;;;1.60;;
9080;SDS011;13509;50.760;6.080;2024-02-26T03:52:04;2.73;;;2.07;;
9080;SDS011;13509;50.760;6.080;2024-02-26T03:54:33;3.33;;;2.10;;
9080;SDS011;13509;50.760;6.080;2024-02-26T03:57:01;2.27;;;1.77;;
9080;SDS011;13509;50.760;6.080;2024-02-26T03:59:29;2.27;;;2.00;;
9080;SDS011;13509;50.760;6.080;2024-02-26T04:01:58;2.53;;;1.83;;
9080;SDS011;13509;50.760;6.080;2024-02-26T04:04:28;3.43;;;2.13;;
9080;SDS011;13509;50.760;6.080;2024-02-26T04:06:57;4.60;;;2.43;;
9080;SDS011;13509;50.760;6.080;2024-02-26T04:09:26;2.10;;;1.90;;
9080;SDS011;13509;50.760;6.080;2024-02-26T04:11:55;2.73;;;2.03;;
9080;SDS011;13509;50.760;6.080;2024-02-26T04:14:24;3.30;;;2.60;;
9080;SDS011;13509;50.760;6.080;2024-02-26T04:16:52;2.50;;;2.10;;
9080;SDS011;13509;50.760;6.080;2024-02-26T04:19:21;2.47;;;2.17;;
9080;SDS011;13509;50.760;6.080;2024-02-26T04:21:49;4.20;;;2.33;;
9080;SDS011;13509;50.760;6.080;2024-02-26T04:24:19;2.67;;;1.93;;
9080;SDS011;13509;50.760;6.080;2024-02-26T04:26:47;3.93;;;1.90;;
9080;SDS011;13509;50.760;6.080;2024-02-26T04:29:16;2.17;;;1.77;;
9080;SDS011;13509;50.760;6.080;2024-02-26T04:31:44;2.23;;;2.00;;
9080;SDS011;13509;50.760;6.080;2024-02-26T04:34:13;2.00;;;1.80;;
9080;SDS011;13509;50.760;6.080;2024-02-26T04:36:41;2.50;;;2.00;;
9080;SDS011;13509;50.760;6.080;2024-02-26T04:39:09;4.40;;;2.37;;
9080;SDS011;13509;50.760;6.080;2024-02-26T04:41:39;3.53;;;2.00;;
9080;SDS011;13509;50.760;6.080;2024-02-26T04:44:08;2.30;;;2.07;;
9080;SDS011;13509;50.760;6.080;2024-02-26T04:46:36;2.10;;;1.90;;
9080;SDS011;13509;50.760;6.080;2024-02-26T04:49:05;4.20;;;2.13;;
9080;SDS011;13509;50.760;6.080;2024-02-26T04:51:33;3.07;;;2.30;;
9080;SDS011;13509;50.760;6.080;2024-02-26T04:54:01;4.33;;;2.40;;
9080;SDS011;13509;50.760;6.080;2024-02-26T04:56:30;2.53;;;2.13;;
9080;SDS011;13509;50.760;6.080;2024-02-26T04:58:59;2.37;;;2.13;;
9080;SDS011;13509;50.760;6.080;2024-02-26T05:01:28;3.50;;;2.43;;
9080;SDS011;13509;50.760;6.080;2024-02-26T05:03:56;3.70;;;2.23;;
9080;SDS011;13509;50.760;6.080;2024-02-26T05:06:25;2.93;;;2.00;;
9080;SDS011;13509;50.760;6.080;2024-02-26T05:08:53;3.40;;;2.00;;
9080;SDS011;13509;50.760;6.080;2024-02-26T05:11:21;4.13;;;2.27;;
9080;SDS011;13509;50.760;6.080;2024-02-26T05:13:50;2.90;;;2.40;;
9080;SDS011;13509;50.760;6.080;2024-02-26T05:16:19;3.07;;;2.47;;
9080;SDS011;13509;50.760;6.080;2024-02-26T05:18:51;3.37;;;2.60;;
9080;SDS011;13509;50.760;6.080;2024-02-26T05:21:19;4.47;;;2.80;;
9080;SDS011;13509;50.760;6.080;2024-02-26T05:23:47;3.73;;;2.83;;
9080;SDS011;13509;50.760;6.080;2024-02-26T05:26:19;4.07;;;3.00;;
9080;SDS011;13509;50.760;6.080;2024-02-26T05:28:48;3.43;;;3.13;;
9080;SDS011;13509;50.760;6.080;2024-02-26T05:31:16;4.43;;;3.40;;
9080;SDS011;13509;50.760;6.080;2024-02-26T05:33:46;5.23;;;3.63;;
9080;SDS011;13509;50.760;6.080;2024-02-26T05:36:18;5.40;;;3.40;;
9080;SDS011;13509;50.760;6.080;2024-02-26T05:38:48;5.83;;;3.83;;
9080;SDS011;13509;50.760;6.080;2024-02-26T05:41:17;5.47;;;3.97;;
9080;SDS011;13509;50.760;6.080;2024-02-26T05:43:49;5.33;;;3.50;;
9080;SDS011;13509;50.760;6.080;2024-02-26T05:46:18;4.53;;;3.90;;
9080;SDS011;13509;50.760;6.080;2024-02-26T05:48:48;5.77;;;3.50;;
9080;SDS011;13509;50.760;6.080;2024-02-26T05:51:17;3.77;;;3.27;;
9080;SDS011;13509;50.760;6.080;2024-02-26T05:53:46;5.20;;;3.53;;
9080;SDS011;13509;50.760;6.080;2024-02-26T05:56:20;3.50;;;3.13;;
9080;SDS011;13509;50.760;6.080;2024-02-26T05:58:49;4.70;;;3.23;;
9080;SDS011;13509;50.760;6.080;2024-02-26T06:01:19;4.20;;;3.60;;
9080;SDS011;13509;50.760;6.080;2024-02-26T06:03:48;4.90;;;3.67;;
9080;SDS011;13509;50.760;6.080;2024-02-26T06:06:17;4.13;;;3.37;;
9080;SDS011;13509;50.760;6.080;2024-02-26T06:08:46;3.97;;;3.43;;
9080;SDS011;13509;50.760;6.080;2024-02-26T06:11:14;3.70;;;3.30;;
9080;SDS011;13509;50.760;6.080;2024-02-26T06:13:42;4.43;;;3.70;;
9080;SDS011;13509;50.760;6.080;2024-02-26T06:16:11;6.50;;;3.83;;
9080;SDS011;13509;50.760;6.080;2024-02-26T06:18:39;4.60;;;3.93;;
9080;SDS011;13509;50.760;6.080;2024-02-26T06:21:10;4.30;;;3.87;;
9080;SDS011;13509;50.760;6.080;2024-02-26T06:23:39;5.43;;;4.30;;
9080;SDS011;13509;50.760;6.080;2024-02-26T06:26:07;4.53;;;3.70;;
9080;SDS011;13509;50.760;6.080;2024-02-26T06:28:36;5.13;;;4.13;;
9080;SDS011;13509;50.760;6.080;2024-02-26T06:31:07;4.73;;;4.13;;
9080;SDS011;13509;50.760;6.080;2024-02-26T06:33:35;5.43;;;3.90;;
9080;SDS011;13509;50.760;6.080;2024-02-26T06:36:04;6.70;;;4.57;;
9080;SDS011;13509;50.760;6.080;2024-02-26T06:38:34;4.57;;;4.17;;
9080;SDS011;13509;50.760;6.080;2024-02-26T06:41:02;6.50;;;4.10;;
9080;SDS011;13509;50.760;6.080;2024-02-26T06:43:31;6.47;;;4.67;;
9080;SDS011;13509;50.760;6.080;2024-02-26T06:45:59;5.90;;;4.57;;
9080;SDS011;13509;50.760;6.080;2024-02-26T06:48:27;5.77;;;4.43;;
9080;SDS011;13509;50.760;6.080;2024-02-26T06:50:56;7.60;;;4.63;;
9080;SDS011;13509;50.760;6.080;2024-02-26T06:53:24;6.60;;;5.00;;
9080;SDS011;13509;50.760;6.080;2024-02-26T06:55:54;5.20;;;4.63;;
9080;SDS011;13509;50.760;6.080;2024-02-26T06:58:23;7.07;;;5.10;;
9080;SDS011;13509;50.760;6.080;2024-02-26T07:00:51;7.53;;;4.97;;
9080;SDS011;13509;50.760;6.080;2024-02-26T07:03:19;6.87;;;5.17;;
9080;SDS011;13509;50.760;6.080;2024-02-26T07:05:49;7.10;;;5.43;;
9080;SDS011;13509;50.760;6.080;2024-02-26T07:08:18;7.43;;;5.10;;
9080;SDS011;13509;50.760;6.080;2024-02-26T07:10:47;6.73;;;5.40;;
9080;SDS011;13509;50.760;6.080;2024-02-26T07:13:17;7.07;;;4.97;;
9080;SDS011;13509;50.760;6.080;2024-02-26T07:15:45;6.17;;;4.57;;
9080;SDS011;13509;50.760;6.080;2024-02-26T07:18:14;6.50;;;5.17;;
9080;SDS011;13509;50.760;6.080;2024-02-26T07:20:42;6.47;;;4.93;;
9080;SDS011;13509;50.760;6.080;2024-02-26T07:23:11;6.47;;;4.90;;
9080;SDS011;13509;50.760;6.080;2024-02-26T07:25:39;6.80;;;5.37;;
9080;SDS011;13509;50.760;6.080;2024-02-26T07:28:11;5.67;;;4.70;;
9080;SDS011;13509;50.760;6.080;2024-02-26T07:30:41;6.33;;;4.97;;
9080;SDS011;13509;50.760;6.080;2024-02-26T07:33:09;6.27;;;5.33;;
9080;SDS011;13509;50.760;6.080;2024-02-26T07:35:37;5.17;;;4.67;;
9080;SDS011;13509;50.760;6.080;2024-02-26T07:38:06;5.33;;;4.17;;
9080;SDS011;13509;50.760;6.080;2024-02-26T07:40:48;5.80;;;4.70;;
9080;SDS011;13509;50.760;6.080;2024-02-26T07:43:27;6.50;;;5.00;;
9080;SDS011;13509;50.760;6.080;2024-02-26T07:45:57;6.47;;;5.07;;
9080;SDS011;13509;50.760;6.080;2024-02-26T07:48:26;5.00;;;4.50;;
9080;SDS011;13509;50.760;6.080;2024-02-26T07:50:54;6.77;;;4.57;;
9080;SDS011;13509;50.760;6.080;2024-02-26T07:53:22;5.83;;;5.20;;
9080;SDS011;13509;50.760;6.080;2024-02-26T07:55:51;6.13;;;5.00;;
9080;SDS011;13509;50.760;6.080;2024-02-26T07:58:19;6.03;;;4.83;;
9080;SDS011;13509;50.760;6.080;2024-02-26T08:00:47;5.20;;;4.67;;
9080;SDS011;13509;50.760;6.080;2024-02-26T08:03:17;5.73;;;4.70;;
9080;SDS011;13509;50.760;6.080;2024-02-26T08:05:46;5.30;;;4.80;;
9080;SDS011;13509;50.760;6.080;2024-02-26T08:08:14;5.57;;;4.77;;
9080;SDS011;13509;50.760;6.080;2024-02-26T08:10:43;7.97;;;5.70;;
9080;SDS011;13509;50.760;6.080;2024-02-26T08:13:11;7.13;;;5.30;;
9080;SDS011;13509;50.760;6.080;2024-02-26T08:15:39;5.77;;;4.70;;
9080;SDS011;13509;50.760;6.080;2024-02-26T08:18:08;5.73;;;4.40;;
9080;SDS011;13509;50.760;6.080;2024-02-26T08:20:38;5.10;;;4.33;;
9080;SDS011;13509;50.760;6.080;2024-02-26T08:23:06;6.37;;;4.63;;
9080;SDS011;13509;50.760;6.080;2024-02-26T08:25:34;5.63;;;4.27;;
9080;SDS011;13509;50.760;6.080;2024-02-26T08:28:03;5.93;;;4.27;;
9080;SDS011;13509;50.760;6.080;2024-02-26T08:30:31;6.27;;;5.07;;
9080;SDS011;13509;50.760;6.080;2024-02-26T08:33:02;10.17;;;5.80;;
9080;SDS011;13509;50.760;6.080;2024-02-26T08:35:30;8.33;;;5.30;;
9080;SDS011;13509;50.760;6.080;2024-02-26T08:38:01;9.30;;;6.30;;
9080;SDS011;13509;50.760;6.080;2024-02-26T08:40:30;7.30;;;5.80;;
9080;SDS011;13509;50.760;6.080;2024-02-26T08:42:58;5.93;;;4.90;;
9080;SDS011;13509;50.760;6.080;2024-02-26T08:45:26;7.67;;;5.67;;
9080;SDS011;13509;50.760;6.080;2024-02-26T08:47:56;6.80;;;5.30;;
9080;SDS011;13509;50.760;6.080;2024-02-26T08:50:26;6.03;;;5.37;;
9080;SDS011;13509;50.760;6.080;2024-02-26T08:52:54;7.17;;;5.40;;
9080;SDS011;13509;50.760;6.080;2024-02-26T08:55:24;5.27;;;4.30;;
9080;SDS011;13509;50.760;6.080;2024-02-26T08:57:52;4.73;;;4.03;;
9080;SDS011;13509;50.760;6.080;2024-02-26T09:00:20;4.43;;;3.70;;
9080;SDS011;13509;50.760;6.080;2024-02-26T09:02:49;3.20;;;2.90;;
9080;SDS011;13509;50.760;6.080;2024-02-26T09:05:17;4.77;;;3.50;;
9080;SDS011;13509;50.760;6.080;2024-02-26T09:07:46;3.00;;;2.70;;
9080;SDS011;13509;50.760;6.080;2024-02-26T09:10:14;2.97;;;2.60;;
9080;SDS011;13509;50.760;6.080;2024-02-26T09:12:44;3.63;;;2.37;;
9080;SDS011;13509;50.760;6.080;2024-02-26T09:15:12;3.40;;;2.07;;
9080;SDS011;13509;50.760;6.080;2024-02-26T09:17:41;1.73;;;1.63;;
9080;SDS011;13509;50.760;6.080;2024-02-26T09:20:10;2.13;;;1.93;;
9080;SDS011;13509;50.760;6.080;2024-02-26T09:22:41;3.20;;;2.10;;
9080;SDS011;13509;50.760;6.080;2024-02-26T09:25:09;2.87;;;2.07;;
9080;SDS011;13509;50.760;6.080;2024-02-26T09:27:38;2.33;;;2.07;;
9080;SDS011;13509;50.760;6.080;2024-02-26T09:30:10;3.73;;;2.30;;
9080;SDS011;13509;50.760;6.080;2024-02-26T09:32:39;2.53;;;1.90;;
9080;SDS011;13509;50.760;6.080;2024-02-26T09:35:08;3.20;;;2.10;;
9080;SDS011;13509;50.760;6.080;2024-02-26T09:37:37;1.73;;;1.50;;
9080;SDS011;13509;50.760;6.080;2024-02-26T09:40:06;2.33;;;1.50;;
9080;SDS011;13509;50.760;6.080;2024-02-26T09:42:36;1.47;;;1.10;;
9080;SDS011;13509;50.760;6.080;2024-02-26T09:45:05;1.30;;;1.20;;
9080;SDS011;13509;50.760;6.080;2024-02-26T09:47:36;2.40;;;1.30;;
9080;SDS011;13509;50.760;6.080;2024-02-26T09:50:06;1.07;;;0.90;;
9080;SDS011;13509;50.760;6.080;2024-02-26T09:52:35;1.10;;;1.00;;
9080;SDS011;13509;50.760;6.080;2024-02-26T09:55:06;1.13;;;1.03;;
9080;SDS011;13509;50.760;6.080;2024-02-26T09:57:36;1.70;;;1.40;;
9080;SDS011;13509;50.760;6.080;2024-02-26T10:00:05;1.50;;;1.30;;
9080;SDS011;13509;50.760;6.080;2024-02-26T10:02:37;1.10;;;1.00;;
9080;SDS011;13509;50.760;6.080;2024-02-26T10:05:07;1.20;;;1.10;;
9080;SDS011;13509;50.760;6.080;2024-02-26T10:07:35;2.80;;;1.30;;
9080;SDS011;13509;50.760;6.080;2024-02-26T10:10:04;2.27;;;1.30;;
9080;SDS011;13509;50.760;6.080;2024-02-26T10:12:33;1.57;;;1.40;;
9080;SDS011;13509;50.760;6.080;2024-02-26T10:15:01;3.13;;;1.30;;
9080;SDS011;13509;50.760;6.080;2024-02-26T10:17:30;1.33;;;1.23;;
9080;SDS011;13509;50.760;6.080;2024-02-26T10:20:11;2.53;;;1.40;;
9080;SDS011;13509;50.760;6.080;2024-02-26T10:22:40;3.53;;;1.50;;
9080;SDS011;13509;50.760;6.080;2024-02-26T10:25:09;1.93;;;1.47;;
9080;SDS011;13509;50.760;6.080;2024-02-26T10:27:37;1.57;;;1.40;;
9080;SDS011;13509;50.760;6.080;2024-02-26T10:30:12;3.00;;;1.40;;
9080;SDS011;13509;50.760;6.080;2024-02-26T10:32:44;2.60;;;1.47;;
9080;SDS011;13509;50.760;6.080;2024-02-26T10:35:14;1.43;;;1.30;;
9080;SDS011;13509;50.760;6.080;2024-02-26T10:37:44;2.00;;;1.30;;
9080;SDS011;13509;50.760;6.080;2024-02-26T10:40:12;2.00;;;1.30;;
9080;SDS011;13509;50.760;6.080;2024-02-26T10:42:41;1.70;;;1.60;;
9080;SDS011;13509;50.760;6.080;2024-02-26T10:45:11;2.30;;;1.70;;
9080;SDS011;13509;50.760;6.080;2024-02-26T10:47:40;1.70;;;1.60;;
9080;SDS011;13509;50.760;6.080;2024-02-26T10:50:09;3.60;;;1.90;;
9080;SDS011;13509;50.760;6.080;2024-02-26T10:52:39;1.70;;;1.60;;
9080;SDS011;13509;50.760;6.080;2024-02-26T10:55:08;1.67;;;1.53;;
9080;SDS011;13509;50.760;6.080;2024-02-26T10:57:41;3.10;;;1.80;;
9080;SDS011;13509;50.760;6.080;2024-02-26T11:00:13;1.60;;;1.50;;
9080;SDS011;13509;50.760;6.080;2024-02-26T11:02:45;2.10;;;1.80;;
9080;SDS011;13509;50.760;6.080;2024-02-26T11:05:13;2.30;;;2.10;;
9080;SDS011;13509;50.760;6.080;2024-02-26T11:07:44;3.53;;;2.27;;
9080;SDS011;13509;50.760;6.080;2024-02-26T11:10:13;3.20;;;2.60;;
9080;SDS011;13509;50.760;6.080;2024-02-26T11:12:42;3.40;;;2.20;;
9080;SDS011;13509;50.760;6.080;2024-02-26T11:15:11;3.73;;;2.50;;
9080;SDS011;13509;50.760;6.080;2024-02-26T11:17:41;2.77;;;2.30;;
9080;SDS011;13509;50.760;6.080;2024-02-26T11:20:11;3.40;;;2.83;;
9080;SDS011;13509;50.760;6.080;2024-02-26T11:22:40;4.17;;;3.40;;
9080;SDS011;13509;50.760;6.080;2024-02-26T11:25:10;5.80;;;3.70;;
9080;SDS011;13509;50.760;6.080;2024-02-26T11:27:40;3.43;;;3.10;;
9080;SDS011;13509;50.760;6.080;2024-02-26T11:30:10;3.80;;;3.50;;
9080;SDS011;13509;50.760;6.080;2024-02-26T11:32:40;4.67;;;3.37;;
9080;SDS011;13509;50.760;6.080;2024-02-26T11:35:08;4.00;;;3.60;;
9080;SDS011;13509;50.760;6.080;2024-02-26T11:37:39;4.67;;;3.40;;
9080;SDS011;13509;50.760;6.080;2024-02-26T11:40:12;5.50;;;4.20;;
9080;SDS011;13509;50.760;6.080;2024-02-26T11:42:43;4.30;;;3.90;;
9080;SDS011;13509;50.760;6.080;2024-02-26T11:47:55;5.23;;;4.33;;
9080;SDS011;13509;50.760;6.080;2024-02-26T11:50:33;5.63;;;4.40;;
9080;SDS011;13509;50.760;6.080;2024-02-26T11:53:24;6.07;;;4.67;;
9080;SDS011;13509;50.760;6.080;2024-02-26T11:56:15;7.00;;;4.83;;
9080;SDS011;13509;50.760;6.080;2024-02-26T11:58:47;5.00;;;4.43;;
9080;SDS011;13509;50.760;6.080;2024-02-26T12:01:35;7.70;;;5.10;;
9080;SDS011;13509;50.760;6.080;2024-02-26T12:04:04;5.23;;;4.40;;
9080;SDS011;13509;50.760;6.080;2024-02-26T12:06:39;6.20;;;4.50;;
9080;SDS011;13509;50.760;6.080;2024-02-26T12:09:09;6.70;;;4.90;;
9080;SDS011;13509;50.760;6.080;2024-02-26T12:11:39;5.47;;;4.87;;
9080;SDS011;13509;50.760;6.080;2024-02-26T12:14:07;5.10;;;4.57;;
9080;SDS011;13509;50.760;6.080;2024-02-26T12:16:36;5.50;;;4.73;;
9080;SDS011;13509;50.760;6.080;2024-02-26T12:19:05;5.83;;;4.60;;
9080;SDS011;13509;50.760;6.080;2024-02-26T12:21:34;6.83;;;5.10;;
9080;SDS011;13509;50.760;6.080;2024-02-26T12:24:06;6.50;;;5.10;;
9080;SDS011;13509;50.760;6.080;2024-02-26T12:26:36;6.10;;;4.50;;
9080;SDS011;13509;50.760;6.080;2024-02-26T12:29:06;6.93;;;4.67;;
9080;SDS011;13509;50.760;6.080;2024-02-26T12:31:34;5.77;;;4.63;;
9080;SDS011;13509;50.760;6.080;2024-02-26T12:34:04;8.20;;;4.47;;
9080;SDS011;13509;50.760;6.080;2024-02-26T12:36:33;6.03;;;4.50;;
9080;SDS011;13509;50.760;6.080;2024-02-26T12:39:02;5.53;;;4.47;;
9080;SDS011;13509;50.760;6.080;2024-02-26T12:41:32;4.07;;;3.67;;
9080;SDS011;13509;50.760;6.080;2024-02-26T12:44:01;5.00;;;4.07;;
9080;SDS011;13509;50.760;6.080;2024-02-26T12:46:32;5.17;;;4.33;;
9080;SDS011;13509;50.760;6.080;2024-02-26T12:49:01;5.23;;;4.20;;
9080;SDS011;13509;50.760;6.080;2024-02-26T12:51:29;4.60;;;3.87;;
9080;SDS011;13509;50.760;6.080;2024-02-26T12:53:58;5.43;;;4.30;;
9080;SDS011;13509;50.760;6.080;2024-02-26T12:56:26;5.93;;;4.77;;
9080;SDS011;13509;50.760;6.080;2024-02-26T12:58:55;5.83;;;4.63;;
9080;SDS011;13509;50.760;6.080;2024-02-26T13:01:24;5.10;;;4.50;;
9080;SDS011;13509;50.760;6.080;2024-02-26T13:03:54;8.20;;;4.13;;
9080;SDS011;13509;50.760;6.080;2024-02-26T13:06:23;5.40;;;3.80;;
9080;SDS011;13509;50.760;6.080;2024-02-26T13:08:55;7.07;;;4.30;;
9080;SDS011;13509;50.760;6.080;2024-02-26T13:11:25;5.23;;;4.17;;
9080;SDS011;13509;50.760;6.080;2024-02-26T13:13:55;5.60;;;4.13;;
9080;SDS011;13509;50.760;6.080;2024-02-26T13:16:24;5.23;;;4.50;;
9080;SDS011;13509;50.760;6.080;2024-02-26T13:18:55;5.20;;;4.57;;
9080;SDS011;13509;50.760;6.080;2024-02-26T13:21:23;6.53;;;4.63;;
9080;SDS011;13509;50.760;6.080;2024-02-26T13:23:53;5.00;;;4.13;;
9080;SDS011;13509;50.760;6.080;2024-02-26T13:26:22;7.47;;;4.60;;
9080;SDS011;13509;50.760;6.080;2024-02-26T13:29:01;5.50;;;4.50;;
9080;SDS011;13509;50.760;6.080;2024-02-26T13:31:30;6.70;;;4.30;;
9080;SDS011;13509;50.760;6.080;2024-02-26T13:34:00;6.10;;;4.43;;
9080;SDS011;13509;50.760;6.080;2024-02-26T13:36:29;6.13;;;3.83;;
9080;SDS011;13509;50.760;6.080;2024-02-26T13:38:57;4.83;;;3.40;;
9080;SDS011;13509;50.760;6.080;2024-02-26T13:41:26;4.33;;;3.00;;
9080;SDS011;13509;50.760;6.080;2024-02-26T13:43:54;4.60;;;3.53;;
9080;SDS011;13509;50.760;6.080;2024-02-26T13:46:24;5.07;;;3.50;;
9080;SDS011;13509;50.760;6.080;2024-02-26T13:48:53;5.23;;;3.60;;
9080;SDS011;13509;50.760;6.080;2024-02-26T13:51:23;4.87;;;3.70;;
9080;SDS011;13509;50.760;6.080;2024-02-26T13:53:51;3.73;;;3.20;;
9080;SDS011;13509;50.760;6.080;2024-02-26T13:56:20;4.77;;;3.30;;
9080;SDS011;13509;50.760;6.080;2024-02-26T13:58:48;3.83;;;3.40;;
9080;SDS011;13509;50.760;6.080;2024-02-26T14:01:16;4.27;;;3.40;;
9080;SDS011;13509;50.760;6.080;2024-02-26T14:03:45;5.47;;;3.33;;
9080;SDS011;13509;50.760;6.080;2024-02-26T14:06:13;3.33;;;3.03;;
9080;SDS011;13509;50.760;6.080;2024-02-26T14:08:43;3.93;;;3.30;;
9080;SDS011;13509;50.760;6.080;2024-02-26T14:11:12;4.00;;;3.10;;
9080;SDS011;13509;50.760;6.080;2024-02-26T14:13:40;4.67;;;3.57;;
9080;SDS011;13509;50.760;6.080;2024-02-26T14:16:11;4.33;;;3.33;;
9080;SDS011;13509;50.760;6.080;2024-02-26T14:18:40;4.47;;;3.47;;
9080;SDS011;13509;50.760;6.080;2024-02-26T14:21:11;3.67;;;2.93;;
9080;SDS011;13509;50.760;6.080;2024-02-26T14:23:39;3.67;;;3.20;;
9080;SDS011;13509;50.760;6.080;2024-02-26T14:26:10;4.00;;;3.60;;
9080;SDS011;13509;50.760;6.080;2024-02-26T14:28:38;4.20;;;3.40;;
9080;SDS011;13509;50.760;6.080;2024-02-26T14:31:07;5.87;;;3.60;;
9080;SDS011;13509;50.760;6.080;2024-02-26T14:33:37;4.67;;;3.90;;
9080;SDS011;13509;50.760;6.080;2024-02-26T14:36:06;4.33;;;3.80;;
9080;SDS011;13509;50.760;6.080;2024-02-26T14:38:35;5.40;;;4.27;;
9080;SDS011;13509;50.760;6.080;2024-02-26T14:41:05;6.63;;;5.07;;
9080;SDS011;13509;50.760;6.080;2024-02-26T14:43:35;7.83;;;5.87;;
9080;SDS011;13509;50.760;6.080;2024-02-26T14:46:03;7.07;;;5.67;;
9080;SDS011;13509;50.760;6.080;2024-02-26T14:48:31;8.93;;;6.30;;
9080;SDS011;13509;50.760;6.080;2024-02-26T14:51:00;9.40;;;6.70;;
9080;SDS011;13509;50.760;6.080;2024-02-26T14:53:28;10.73;;;6.87;;
9080;SDS011;13509;50.760;6.080;2024-02-26T14:55:58;9.87;;;7.10;;
9080;SDS011;13509;50.760;6.080;2024-02-26T14:58:27;13.23;;;7.53;;
9080;SDS011;13509;50.760;6.080;2024-02-26T15:00:56;9.90;;;7.27;;
9080;SDS011;13509;50.760;6.080;2024-02-26T15:03:25;13.33;;;8.63;;
9080;SDS011;13509;50.760;6.080;2024-02-26T15:05:53;12.10;;;9.00;;
9080;SDS011;13509;50.760;6.080;2024-02-26T15:08:22;13.40;;;9.07;;
9080;SDS011;13509;50.760;6.080;2024-02-26T15:10:50;15.57;;;9.77;;
9080;SDS011;13509;50.760;6.080;2024-02-26T15:13:18;19.07;;;10.77;;
9080;SDS011;13509;50.760;6.080;2024-02-26T15:15:47;15.57;;;10.50;;